createdAt,value
2023-02-16T00:00:48.123Z,88.64
2023-02-16T00:03:22.082Z,89.06
2023-02-16T00:05:50.569Z,89.34
2023-02-16T00:08:17.847Z,89.80
2023-02-16T00:11:06.292Z,89.34
2023-02-16T00:13:44.853Z,88.38
2023-02-16T00:16:24.668Z,89.14
2023-02-16T00:18:52.807Z,89.21
2023-02-16T00:21:20.545Z,87.81
2023-02-16T00:23:48.708Z,87.63
2023-02-16T00:26:22.832Z,87.08
2023-02-16T00:28:58.645Z,86.79
2023-02-16T00:31:32.356Z,86.47
2023-02-16T00:34:14.178Z,86.44
2023-02-16T00:36:43.697Z,86.27
2023-02-16T00:39:10.624Z,86.76
2023-02-16T00:41:55.077Z,86.93
2023-02-16T00:44:41.702Z,87.43
2023-02-16T00:47:21.980Z,87.20
2023-02-16T00:49:54.122Z,86.94
2023-02-16T00:52:37.122Z,86.36
2023-02-16T00:55:13.618Z,87.92
2023-02-16T00:58:18.538Z,88.04
2023-02-16T01:00:55.632Z,87.28
2023-02-16T01:03:29.066Z,87.53
2023-02-16T01:06:15.362Z,87.15
2023-02-16T01:09:01.607Z,86.67
2023-02-16T01:11:29.980Z,88.29
2023-02-16T01:13:58.467Z,89.09
2023-02-16T01:16:37.397Z,88.40
2023-02-16T01:19:07.240Z,88.09
2023-02-16T01:21:34.228Z,88.53
2023-02-16T01:24:03.283Z,88.77
2023-02-16T01:26:32.626Z,89.09
2023-02-16T01:29:02.994Z,89.49
2023-02-16T01:31:30.010Z,90.55
2023-02-16T01:33:56.975Z,90.35
2023-02-16T01:36:30.044Z,90.77
2023-02-16T01:38:56.996Z,91.14
2023-02-16T01:42:04.488Z,91.46
2023-02-16T01:44:46.134Z,90.78
2023-02-16T01:47:36.930Z,88.99
2023-02-16T01:50:22.232Z,88.69
2023-02-16T01:53:02.923Z,89.48
2023-02-16T01:55:42.440Z,89.64
2023-02-16T01:58:31.849Z,90.21
2023-02-16T02:00:58.899Z,90.11
2023-02-16T02:03:54.664Z,89.13
2023-02-16T02:06:33.617Z,89.16
2023-02-16T02:09:11.721Z,89.61
2023-02-16T02:12:13.121Z,89.98
2023-02-16T02:14:40.735Z,89.96
2023-02-16T02:17:16.527Z,89.37
2023-02-16T02:20:05.458Z,89.34
2023-02-16T02:23:33.624Z,89.48
2023-02-16T02:26:40.721Z,89.98
2023-02-16T02:29:27.618Z,89.41
2023-02-16T02:32:17.978Z,90.54
2023-02-16T02:34:56.987Z,89.98
2023-02-16T02:37:57.335Z,89.75
2023-02-16T02:40:34.290Z,90.86
2023-02-16T02:43:25.190Z,89.77
2023-02-16T02:46:01.844Z,89.55
2023-02-16T02:48:33.709Z,89.49
2023-02-16T02:51:28.550Z,88.92
2023-02-16T02:54:20.666Z,89.27
2023-02-16T02:57:12.732Z,89.32
2023-02-16T03:00:01.950Z,89.61
2023-02-16T03:02:31.540Z,89.25
2023-02-16T03:05:00.025Z,89.72
2023-02-16T03:07:51.450Z,89.74
2023-02-16T03:10:44.915Z,89.49
2023-02-16T03:13:35.166Z,88.85
2023-02-16T03:16:14.346Z,88.76
2023-02-16T03:19:05.194Z,89.29
2023-02-16T03:21:52.444Z,89.31
2023-02-16T03:24:48.674Z,89.03
2023-02-16T03:27:40.979Z,90.03
2023-02-16T03:30:12.200Z,89.29
2023-02-16T03:32:42.200Z,89.19
2023-02-16T03:35:12.797Z,89.22
2023-02-16T03:37:46.976Z,88.89
2023-02-16T03:40:30.913Z,88.37
2023-02-16T03:43:04.624Z,89.22
2023-02-16T03:45:35.179Z,88.18
2023-02-16T03:48:02.544Z,87.96
2023-02-16T03:50:29.964Z,87.75
2023-02-16T03:53:09.126Z,87.50
2023-02-16T03:55:38.428Z,87.16
2023-02-16T03:58:10.583Z,87.49
2023-02-16T04:00:38.279Z,87.80
2023-02-16T04:03:05.992Z,88.63
2023-02-16T04:05:33.669Z,88.05
2023-02-16T04:08:00.763Z,87.41
2023-02-16T04:10:27.879Z,87.59
2023-02-16T04:12:54.807Z,87.57
2023-02-16T04:15:26.272Z,86.64
2023-02-16T04:17:54.062Z,87.68
2023-02-16T04:20:25.643Z,88.38
2023-02-16T04:22:56.154Z,88.17
2023-02-16T04:25:23.427Z,88.39
2023-02-16T04:27:55.710Z,88.54
2023-02-16T04:30:30.604Z,87.07
2023-02-16T04:32:58.738Z,86.41
2023-02-16T04:35:25.700Z,86.63
2023-02-16T04:37:57.229Z,86.39
2023-02-16T04:40:24.149Z,86.29
2023-02-16T04:42:51.102Z,86.20
2023-02-16T04:45:18.034Z,86.28
2023-02-16T04:47:47.900Z,85.91
2023-02-16T04:50:14.823Z,86.07
2023-02-16T04:52:42.253Z,86.91
2023-02-16T04:55:12.273Z,85.83
2023-02-16T04:57:40.264Z,86.42
2023-02-16T05:00:13.159Z,86.81
2023-02-16T05:02:47.037Z,86.81
2023-02-16T05:05:16.112Z,87.21
2023-02-16T05:07:45.666Z,87.83
2023-02-16T05:10:12.633Z,87.80
2023-02-16T05:12:58.026Z,87.66
2023-02-16T05:15:25.001Z,86.92
2023-02-16T05:17:56.625Z,87.38
2023-02-16T05:20:45.791Z,87.10
2023-02-16T05:23:12.729Z,87.25
2023-02-16T05:25:42.092Z,87.05
2023-02-16T05:28:09.146Z,87.51
2023-02-16T05:30:40.859Z,86.95
2023-02-16T05:33:10.205Z,87.12
2023-02-16T05:35:39.643Z,86.94
2023-02-16T05:38:11.139Z,86.29
2023-02-16T05:40:38.034Z,86.23
2023-02-16T05:43:07.365Z,86.10
2023-02-16T05:45:34.256Z,86.49
2023-02-16T05:48:01.109Z,86.67
2023-02-16T05:50:32.564Z,86.77
2023-02-16T05:53:02.470Z,86.33
2023-02-16T05:55:29.370Z,86.20
2023-02-16T05:57:56.339Z,86.55
2023-02-16T06:00:25.776Z,87.05
2023-02-16T06:02:57.284Z,87.94
2023-02-16T06:05:26.711Z,87.63
2023-02-16T06:07:53.530Z,87.91
2023-02-16T06:10:20.487Z,87.90
2023-02-16T06:12:50.369Z,88.04
2023-02-16T06:15:18.015Z,87.91
2023-02-16T06:17:44.941Z,88.16
2023-02-16T06:20:12.167Z,87.50
2023-02-16T06:22:38.988Z,87.57
2023-02-16T06:25:08.455Z,87.71
2023-02-16T06:27:35.386Z,87.55
2023-02-16T06:30:02.886Z,87.73
2023-02-16T06:32:29.951Z,88.19
2023-02-16T06:35:01.960Z,88.21
2023-02-16T06:37:28.873Z,87.92
2023-02-16T06:39:55.773Z,86.81
2023-02-16T06:42:22.672Z,86.47
2023-02-16T06:44:52.576Z,86.06
2023-02-16T06:47:19.471Z,85.99
2023-02-16T06:49:46.299Z,86.19
2023-02-16T06:52:13.237Z,85.84
2023-02-16T06:54:40.099Z,84.90
2023-02-16T06:57:09.146Z,85.21
2023-02-16T06:59:36.008Z,85.66
2023-02-16T07:02:06.096Z,85.10
2023-02-16T07:04:35.999Z,85.09
2023-02-16T07:07:03.798Z,83.80
2023-02-16T07:09:30.731Z,83.80
2023-02-16T07:11:58.395Z,80.84
2023-02-16T07:14:25.257Z,78.88
2023-02-16T07:16:54.637Z,80.45
2023-02-16T07:19:21.486Z,80.03
2023-02-16T07:21:50.911Z,80.35
2023-02-16T07:24:17.870Z,80.61
2023-02-16T07:26:44.700Z,81.15
2023-02-16T07:29:16.081Z,80.28
2023-02-16T07:31:48.676Z,77.62
2023-02-16T07:34:19.650Z,74.72
2023-02-16T07:36:52.225Z,70.90
2023-02-16T07:39:19.564Z,68.59
2023-02-16T07:41:46.496Z,67.71
2023-02-16T07:44:13.398Z,66.27
2023-02-16T07:46:40.411Z,63.57
2023-02-16T07:49:07.304Z,63.14
2023-02-16T07:51:35.064Z,65.39
2023-02-16T07:54:01.957Z,67.75
2023-02-16T07:56:31.610Z,69.57
2023-02-16T07:59:05.456Z,71.11
2023-02-16T08:01:35.277Z,70.85
2023-02-16T08:04:02.146Z,73.23
2023-02-16T08:06:29.040Z,73.94
2023-02-16T08:08:58.672Z,73.14
2023-02-16T08:11:28.359Z,71.98
2023-02-16T08:13:55.421Z,69.70
2023-02-16T08:16:27.293Z,68.91
2023-02-16T08:18:58.787Z,69.98
2023-02-16T08:21:29.933Z,71.10
2023-02-16T08:24:06.242Z,70.96
2023-02-16T08:26:44.996Z,70.87
2023-02-16T08:29:17.973Z,69.87
2023-02-16T08:31:50.517Z,69.42
2023-02-16T08:34:20.395Z,67.43
2023-02-16T08:36:56.452Z,67.67
2023-02-16T08:39:29.882Z,65.79
2023-02-16T08:41:59.244Z,62.13
2023-02-16T08:44:28.966Z,63.66
2023-02-16T08:47:01.504Z,64.50
2023-02-16T08:49:28.497Z,65.57
2023-02-16T08:51:58.628Z,65.96
2023-02-16T08:54:30.664Z,66.01
2023-02-16T08:56:59.991Z,65.67
2023-02-16T08:59:28.750Z,66.82
2023-02-16T09:02:00.215Z,66.50
2023-02-16T09:04:31.014Z,66.60
2023-02-16T09:06:59.682Z,66.29
2023-02-16T09:09:27.981Z,69.30
2023-02-16T09:11:59.660Z,70.97
2023-02-16T09:14:31.344Z,71.59
2023-02-16T09:17:00.751Z,73.05
2023-02-16T09:19:30.139Z,72.65
2023-02-16T09:21:57.055Z,72.70
2023-02-16T09:24:23.947Z,71.69
2023-02-16T09:26:53.439Z,71.90
2023-02-16T09:29:24.830Z,71.92
2023-02-16T09:31:52.345Z,72.14
2023-02-16T09:34:22.677Z,71.51
2023-02-16T09:36:50.824Z,71.96
2023-02-16T09:39:20.759Z,71.30
2023-02-16T09:42:05.792Z,71.56
2023-02-16T09:44:45.412Z,72.84
2023-02-16T09:47:33.068Z,72.39
2023-02-16T09:50:13.274Z,73.57
2023-02-16T09:52:58.018Z,73.00
2023-02-16T09:55:32.452Z,72.74
2023-02-16T09:58:25.444Z,71.22
2023-02-16T10:01:25.050Z,70.75
2023-02-16T10:04:13.002Z,69.91
2023-02-16T10:06:54.387Z,71.26
2023-02-16T10:09:22.091Z,70.17
2023-02-16T10:12:04.198Z,69.92
2023-02-16T10:14:50.093Z,69.83
2023-02-16T10:17:32.659Z,69.43
2023-02-16T10:20:06.356Z,68.51
2023-02-16T10:22:47.356Z,68.75
2023-02-16T10:25:37.651Z,68.80
2023-02-16T10:28:28.879Z,65.65
2023-02-16T10:31:06.228Z,63.88
2023-02-16T10:33:53.394Z,63.72
2023-02-16T10:36:55.357Z,61.86
2023-02-16T10:39:29.710Z,59.73
2023-02-16T10:42:27.156Z,59.49
2023-02-16T10:45:24.133Z,58.21
2023-02-16T10:47:56.762Z,56.23
2023-02-16T10:50:43.060Z,57.46
2023-02-16T10:53:21.104Z,59.99
2023-02-16T10:55:50.084Z,60.34
2023-02-16T10:58:29.210Z,62.42
2023-02-16T11:01:08.518Z,61.55
2023-02-16T11:03:46.679Z,61.69
2023-02-16T11:06:18.885Z,58.16
2023-02-16T11:08:59.222Z,54.76
2023-02-16T11:11:28.270Z,54.97
2023-02-16T11:14:23.939Z,58.16
2023-02-16T11:17:13.515Z,58.50
2023-02-16T11:19:50.481Z,61.25
2023-02-16T11:22:31.313Z,64.15
2023-02-16T11:25:22.669Z,66.78
2023-02-16T11:27:58.624Z,65.44
2023-02-16T11:30:41.511Z,65.94
2023-02-16T11:33:27.689Z,67.11
2023-02-16T11:35:55.938Z,66.91
2023-02-16T11:38:33.993Z,65.63
2023-02-16T11:41:05.074Z,65.71
2023-02-16T11:43:44.000Z,65.62
2023-02-16T11:46:20.678Z,67.00
2023-02-16T11:48:55.377Z,67.19
2023-02-16T11:51:36.482Z,67.44
2023-02-16T11:54:06.297Z,65.91
2023-02-16T11:56:37.899Z,66.30
2023-02-16T11:59:24.884Z,63.77
2023-02-16T12:02:31.730Z,62.48
2023-02-16T12:05:17.118Z,61.38
2023-02-16T12:08:10.724Z,60.05
2023-02-16T12:11:18.696Z,60.90
2023-02-16T12:14:36.386Z,61.33
2023-02-16T12:17:33.607Z,64.24
2023-02-16T12:20:17.309Z,66.23
2023-02-16T12:22:50.048Z,64.98
2023-02-16T12:25:27.134Z,64.60
2023-02-16T12:28:37.318Z,66.02
2023-02-16T12:31:31.495Z,66.66
2023-02-16T12:34:30.277Z,67.86
2023-02-16T12:37:18.027Z,68.43
2023-02-16T12:40:02.794Z,68.69
2023-02-16T12:42:55.283Z,68.83
2023-02-16T12:45:32.448Z,70.15
2023-02-16T12:48:11.494Z,70.79
2023-02-16T12:50:42.303Z,71.64
2023-02-16T12:53:27.499Z,72.37
2023-02-16T12:55:59.182Z,71.15
2023-02-16T12:58:32.406Z,71.78
2023-02-16T13:01:21.748Z,71.14
2023-02-16T13:04:14.491Z,71.07
2023-02-16T13:06:55.851Z,71.05
2023-02-16T13:09:53.379Z,71.43
2023-02-16T13:12:51.768Z,71.00
2023-02-16T13:16:29.152Z,71.97
2023-02-16T13:19:01.790Z,70.65
2023-02-16T13:21:51.226Z,70.11
2023-02-16T13:24:36.765Z,70.57
2023-02-16T13:27:25.052Z,70.37
2023-02-16T13:30:16.948Z,68.94
2023-02-16T13:32:45.061Z,70.19
2023-02-16T13:35:22.719Z,69.72
2023-02-16T13:38:23.298Z,68.52
2023-02-16T13:41:11.700Z,69.50
2023-02-16T13:44:12.323Z,70.48
2023-02-16T13:46:50.202Z,70.95
2023-02-16T13:49:29.148Z,71.77
2023-02-16T13:51:56.339Z,72.52
2023-02-16T13:54:40.205Z,72.08
2023-02-16T13:57:18.374Z,72.54
2023-02-16T13:59:58.476Z,72.48
2023-02-16T14:02:54.813Z,73.39
2023-02-16T14:05:35.212Z,75.91
2023-02-16T14:08:13.534Z,75.12
2023-02-16T14:10:55.467Z,74.76
2023-02-16T14:13:33.671Z,74.22
2023-02-16T14:16:17.351Z,72.41
2023-02-16T14:18:54.621Z,71.53
2023-02-16T14:21:48.250Z,71.34
2023-02-16T14:24:34.002Z,70.38
2023-02-16T14:27:09.632Z,70.17
2023-02-16T14:29:44.459Z,69.95
2023-02-16T14:32:39.290Z,71.17
2023-02-16T14:35:17.036Z,71.18
2023-02-16T14:37:55.166Z,72.27
2023-02-16T14:40:40.827Z,72.65
2023-02-16T14:43:24.992Z,71.78
2023-02-16T14:46:27.963Z,72.49
2023-02-16T14:49:43.192Z,71.58
2023-02-16T14:52:40.495Z,72.06
2023-02-16T14:55:18.243Z,71.70
2023-02-16T14:57:57.108Z,70.92
2023-02-16T15:00:29.098Z,70.45
2023-02-16T15:03:29.858Z,70.01
2023-02-16T15:06:06.657Z,70.13
2023-02-16T15:08:48.561Z,69.33
2023-02-16T15:12:10.452Z,69.25
2023-02-16T15:14:59.130Z,71.00
2023-02-16T15:17:39.930Z,70.61
2023-02-16T15:20:28.507Z,71.87
2023-02-16T15:23:01.399Z,72.04
2023-02-16T15:25:34.935Z,72.82
2023-02-16T15:28:12.723Z,73.33
2023-02-16T15:30:44.556Z,74.22
2023-02-16T15:33:27.296Z,74.21
2023-02-16T15:36:15.026Z,74.85
2023-02-16T15:38:54.814Z,75.79
2023-02-16T15:41:38.295Z,75.84
2023-02-16T15:44:17.774Z,75.63
2023-02-16T15:46:48.368Z,74.93
2023-02-16T15:49:28.341Z,74.95
2023-02-16T15:51:57.482Z,73.94
2023-02-16T15:54:35.536Z,76.18
2023-02-16T15:57:21.362Z,75.14
2023-02-16T15:59:52.963Z,74.44
2023-02-16T16:02:27.138Z,75.22
2023-02-16T16:05:05.864Z,75.96
2023-02-16T16:07:42.940Z,75.99
2023-02-16T16:10:27.072Z,75.78
2023-02-16T16:13:03.663Z,76.71
2023-02-16T16:15:36.058Z,77.72
2023-02-16T16:18:06.757Z,76.59
2023-02-16T16:20:38.517Z,77.41
2023-02-16T16:23:17.526Z,77.88
2023-02-16T16:25:49.010Z,78.07
2023-02-16T16:28:27.990Z,78.88
2023-02-16T16:31:17.521Z,80.26
2023-02-16T16:34:07.447Z,81.52
2023-02-16T16:36:46.849Z,81.30
2023-02-16T16:39:16.743Z,82.69
2023-02-16T16:42:16.416Z,83.78
2023-02-16T16:44:56.472Z,84.19
2023-02-16T16:47:34.435Z,84.19
2023-02-16T16:50:10.563Z,83.90
2023-02-16T16:52:52.485Z,83.89
2023-02-16T16:55:19.279Z,84.06
2023-02-16T16:57:53.734Z,83.32
2023-02-16T17:00:22.241Z,83.52
2023-02-16T17:02:50.033Z,84.26
2023-02-16T17:05:17.312Z,83.50
2023-02-16T17:07:48.890Z,83.90
2023-02-16T17:10:20.057Z,84.15
2023-02-16T17:12:52.015Z,83.17
2023-02-16T17:15:56.493Z,84.84
2023-02-16T17:18:29.123Z,84.01
2023-02-16T17:20:58.791Z,84.56
2023-02-16T17:23:28.065Z,86.38
2023-02-16T17:25:54.968Z,86.59
2023-02-16T17:28:22.123Z,86.86
2023-02-16T17:30:51.589Z,88.10
2023-02-16T17:33:18.507Z,88.73
2023-02-16T17:35:47.914Z,90.33
2023-02-16T17:38:22.863Z,91.45
2023-02-16T17:40:54.396Z,90.37
2023-02-16T17:43:25.726Z,90.25
2023-02-16T17:45:59.472Z,93.89
2023-02-16T17:48:30.383Z,93.28
2023-02-16T17:51:00.474Z,93.27
2023-02-16T17:53:32.856Z,93.32
2023-02-16T17:56:01.801Z,92.96
2023-02-16T17:58:28.715Z,95.08
2023-02-16T18:00:57.733Z,96.03
2023-02-16T18:03:27.682Z,94.85
2023-02-16T18:05:55.438Z,96.55
2023-02-16T18:08:22.874Z,97.61
2023-02-16T18:10:53.807Z,98.17
2023-02-16T18:13:20.843Z,97.36
2023-02-16T18:15:50.145Z,97.60
2023-02-16T18:18:20.151Z,97.52
2023-02-16T18:20:47.997Z,97.05
2023-02-16T18:23:15.369Z,97.95
2023-02-16T18:25:44.062Z,97.36
2023-02-16T18:28:20.935Z,97.52
2023-02-16T18:30:49.246Z,97.78
2023-02-16T18:33:23.214Z,99.14
2023-02-16T18:36:00.335Z,98.21
2023-02-16T18:38:27.755Z,98.68
2023-02-16T18:40:55.446Z,100.00
2023-02-16T18:43:23.176Z,99.86
2023-02-16T18:45:52.728Z,99.18
2023-02-16T18:48:21.761Z,97.85
2023-02-16T18:50:50.916Z,97.86
2023-02-16T18:53:22.978Z,97.48
2023-02-16T18:55:52.386Z,97.71
2023-02-16T18:58:19.744Z,97.80
2023-02-16T19:00:49.696Z,97.13
2023-02-16T19:03:16.772Z,96.64
2023-02-16T19:05:43.835Z,96.98
2023-02-16T19:08:10.854Z,96.82
2023-02-16T19:10:40.304Z,95.69
2023-02-16T19:13:10.348Z,94.70
2023-02-16T19:15:41.611Z,95.43
2023-02-16T19:18:08.534Z,94.60
2023-02-16T19:20:39.001Z,94.77
2023-02-16T19:23:10.409Z,94.55
2023-02-16T19:25:37.323Z,94.17
2023-02-16T19:28:04.509Z,93.85
2023-02-16T19:30:31.546Z,93.38
2023-02-16T19:33:00.866Z,93.26
2023-02-16T19:35:27.791Z,93.23
2023-02-16T19:37:57.113Z,92.59
2023-02-16T19:40:28.522Z,92.61
2023-02-16T19:42:57.776Z,92.23
2023-02-16T19:45:24.957Z,92.95
2023-02-16T19:47:51.885Z,92.52
2023-02-16T19:50:21.448Z,92.67
2023-02-16T19:52:48.355Z,92.40
2023-02-16T19:55:15.260Z,93.58
2023-02-16T19:57:44.353Z,94.33
2023-02-16T20:00:14.076Z,93.41
2023-02-16T20:02:41.005Z,94.15
2023-02-16T20:05:13.439Z,94.09
2023-02-16T20:07:40.504Z,94.01
2023-02-16T20:10:11.166Z,93.39
2023-02-16T20:12:38.136Z,93.54
2023-02-16T20:15:08.886Z,94.87
2023-02-16T20:17:35.857Z,92.90
2023-02-16T20:20:09.223Z,94.82
2023-02-16T20:22:38.225Z,94.95
2023-02-16T20:25:07.740Z,93.99
2023-02-16T20:27:35.001Z,95.26
2023-02-16T20:30:07.791Z,98.45
2023-02-16T20:32:36.897Z,99.35
2023-02-16T20:35:09.707Z,97.97
2023-02-16T20:37:41.219Z,99.38
2023-02-16T20:40:11.135Z,98.56
2023-02-16T20:42:38.051Z,98.07
2023-02-16T20:45:05.522Z,99.00
2023-02-16T20:47:32.461Z,98.85
2023-02-16T20:50:02.382Z,100.00
2023-02-16T20:52:34.470Z,99.58
2023-02-16T20:55:01.491Z,100.00
2023-02-16T20:57:28.404Z,100.00
2023-02-16T20:59:57.941Z,100.00
2023-02-16T21:02:24.912Z,100.00
2023-02-16T21:04:54.457Z,100.00
2023-02-16T21:07:21.374Z,100.00
2023-02-16T21:09:48.304Z,100.00
2023-02-16T21:12:20.038Z,100.00
2023-02-16T21:14:51.418Z,100.00
2023-02-16T21:17:18.540Z,100.00
2023-02-16T21:19:45.697Z,100.00
2023-02-16T21:22:17.308Z,100.00
2023-02-16T21:24:46.753Z,100.00
2023-02-16T21:27:16.659Z,100.00
2023-02-16T21:29:43.792Z,100.00
2023-02-16T21:32:13.904Z,100.00
2023-02-16T21:34:40.947Z,100.00
2023-02-16T21:37:14.912Z,100.00
2023-02-16T21:40:02.660Z,100.00
2023-02-16T21:42:32.088Z,100.00
2023-02-16T21:45:13.905Z,100.00
2023-02-16T21:48:05.885Z,100.00
2023-02-16T21:50:39.882Z,100.00
2023-02-16T21:53:10.036Z,100.00
2023-02-16T21:55:58.841Z,100.00
2023-02-16T21:58:30.161Z,100.00
2023-02-16T22:01:00.609Z,100.00
2023-02-16T22:03:28.262Z,100.00
2023-02-16T22:05:55.255Z,100.00
2023-02-16T22:08:22.120Z,100.00
2023-02-16T22:10:56.105Z,100.00
2023-02-16T22:13:23.023Z,100.00
2023-02-16T22:15:52.082Z,100.00
2023-02-16T22:18:21.036Z,100.00
2023-02-16T22:20:52.605Z,100.00
2023-02-16T22:23:22.119Z,100.00
2023-02-16T22:25:51.463Z,100.00
2023-02-16T22:28:20.420Z,100.00
2023-02-16T22:30:50.346Z,100.00
2023-02-16T22:33:17.261Z,100.00
2023-02-16T22:35:48.815Z,100.00
2023-02-16T22:38:16.926Z,100.00
2023-02-16T22:40:43.902Z,100.00
2023-02-16T22:43:13.225Z,100.00
2023-02-16T22:45:40.170Z,100.00
2023-02-16T22:48:10.066Z,100.00
2023-02-16T22:50:41.529Z,100.00
2023-02-16T22:53:11.613Z,100.00
2023-02-16T22:55:41.749Z,100.00
2023-02-16T22:58:11.006Z,100.00
2023-02-16T23:00:40.470Z,100.00
2023-02-16T23:03:09.372Z,100.00
2023-02-16T23:05:36.297Z,100.00
2023-02-16T23:08:05.512Z,100.00
2023-02-16T23:10:37.785Z,100.00
2023-02-16T23:13:10.578Z,100.00
2023-02-16T23:15:37.894Z,100.00
2023-02-16T23:18:04.880Z,100.00
2023-02-16T23:20:34.235Z,100.00
2023-02-16T23:23:01.137Z,100.00
2023-02-16T23:25:33.672Z,100.00
2023-02-16T23:28:06.363Z,100.00
2023-02-16T23:30:33.372Z,100.00
2023-02-16T23:33:02.418Z,100.00
2023-02-16T23:35:34.172Z,100.00
2023-02-16T23:38:02.779Z,100.00
2023-02-16T23:40:32.351Z,100.00
2023-02-16T23:43:01.799Z,100.00
2023-02-16T23:45:31.248Z,100.00
2023-02-16T23:47:58.201Z,100.00
2023-02-16T23:50:31.241Z,100.00
2023-02-16T23:52:58.112Z,100.00
2023-02-16T23:55:25.059Z,100.00
2023-02-16T23:57:54.169Z,100.00
